Time;durP1;ratioP1;P1;durP2;ratioP2;P2;SDS_P1;SDS_P2;PMS_P1;PMS_P2;Temp;Humidity;BMP_temperature;BMP_pressure;BME280_temperature;BME280_humidity;BME280_pressure;Samples;Min_cycle;Max_cycle;Signal;HPM_P1;HPM_P2
2023/01/01 00:01:27;;;;;;;17.50;7.65;;;;;;;2.53;100.00;99215.50;4949994;28;20051;-87
2023/01/01 00:03:56;;;;;;;14.85;6.80;;;;;;;2.60;100.00;99233.38;4948582;28;20723;-88
2023/01/01 00:06:23;;;;;;;17.85;5.38;;;;;;;2.42;100.00;99189.97;4966019;28;21041;-86
2023/01/01 00:10:26;;;;;;;16.20;7.80;;;;;;;2.93;100.00;99284.97;4945634;28;20060;-87
2023/01/01 00:11:39;;;;;;;18.13;8.05;;;;;;;2.45;100.00;99220.88;4948138;28;20066;-88
2023/01/01 00:14:06;;;;;;;17.70;8.40;;;;;;;2.62;100.00;99252.25;4953374;28;20058;-86
2023/01/01 00:16:38;;;;;;;19.42;7.70;;;;;;;2.65;100.00;99234.06;4953739;28;20062;-88
2023/01/01 00:19:05;;;;;;;17.92;7.63;;;;;;;2.86;100.00;99262.75;4947671;28;20383;-87
2023/01/01 00:21:32;;;;;;;15.18;6.55;;;;;;;2.96;100.00;99266.78;4949640;28;20533;-87
2023/01/01 00:23:59;;;;;;;12.90;6.78;;;;;;;2.76;100.00;99222.56;4952159;28;20078;-86
2023/01/01 00:26:25;;;;;;;15.48;7.72;;;;;;;2.70;100.00;99218.44;4948939;29;20055;-86
2023/01/01 00:29:00;;;;;;;20.45;9.63;;;;;;;2.41;100.00;99202.03;4956094;28;20051;-86
2023/01/01 00:31:26;;;;;;;20.02;9.13;;;;;;;2.76;100.00;99244.09;4955926;28;20122;-87
2023/01/01 00:33:54;;;;;;;14.00;6.97;;;;;;;2.68;100.00;99225.38;4948108;28;20082;-86
2023/01/01 00:36:23;;;;;;;18.35;10.00;;;;;;;2.90;100.00;99259.19;4948868;28;20064;-86
2023/01/01 00:38:50;;;;;;;24.88;11.98;;;;;;;2.45;100.00;99193.31;4943758;28;20054;-86
2023/01/01 00:41:17;;;;;;;17.50;9.13;;;;;;;2.83;100.00;99252.50;4954852;28;20051;-86
2023/01/01 00:43:44;;;;;;;21.52;10.18;;;;;;;2.85;100.00;99248.13;4950416;28;20124;-86
2023/01/01 00:46:12;;;;;;;15.80;9.15;;;;;;;2.63;100.00;99199.66;4949714;28;20480;-86
2023/01/01 00:48:39;;;;;;;15.48;7.25;;;;;;;2.57;100.00;99189.53;4967291;28;20055;-86
2023/01/01 00:51:06;;;;;;;13.88;6.82;;;;;;;2.97;100.00;99246.94;4958281;28;20043;-86
2023/01/01 00:53:33;;;;;;;13.50;6.50;;;;;;;2.96;100.00;99259.03;4944487;28;20387;-86
2023/01/01 00:56:00;;;;;;;11.98;5.45;;;;;;;3.07;100.00;99239.75;4947679;28;20150;-86
2023/01/01 00:58:27;;;;;;;16.98;7.55;;;;;;;2.86;100.00;99229.16;4950811;29;20067;-86
2023/01/01 01:00:54;;;;;;;12.27;6.45;;;;;;;2.95;100.00;99236.63;4951360;28;20063;-86
2023/01/01 01:03:27;;;;;;;11.13;5.93;;;;;;;2.93;100.00;99235.84;4952106;28;20062;-86
2023/01/01 01:05:59;;;;;;;14.65;5.88;;;;;;;2.96;100.00;99229.75;4942643;29;20051;-86
2023/01/01 01:08:27;;;;;;;16.13;8.13;;;;;;;2.65;100.00;99172.03;4948869;28;20055;-86
2023/01/01 01:11:21;;;;;;;19.02;8.32;;;;;;;2.88;100.00;99214.44;4949822;28;20130;-86
2023/01/01 01:13:50;;;;;;;15.60;7.70;;;;;;;2.75;100.00;99203.63;4947671;28;20052;-86
2023/01/01 01:16:19;;;;;;;15.82;8.23;;;;;;;2.74;100.00;99191.59;4951775;28;20500;-86
2023/01/01 01:18:48;;;;;;;15.65;7.97;;;;;;;2.99;100.00;99238.25;4941192;28;20051;-87
2023/01/01 01:21:18;;;;;;;14.90;7.72;;;;;;;2.78;100.00;99208.72;4939500;28;20383;-87
2023/01/01 01:23:44;;;;;;;21.50;10.18;;;;;;;2.88;100.00;99208.44;4944056;28;20489;-86
2023/01/01 01:26:15;;;;;;;19.55;8.80;;;;;;;2.66;100.00;99181.50;4950631;28;20058;-86
2023/01/01 01:28:43;;;;;;;17.65;8.15;;;;;;;3.00;100.00;99245.09;4958809;28;20054;-86
2023/01/01 01:31:16;;;;;;;15.85;6.93;;;;;;;3.04;100.00;99238.94;4947791;28;20414;-86
2023/01/01 01:33:44;;;;;;;11.40;5.20;;;;;;;3.17;100.00;99241.13;4944263;28;20127;-86
2023/01/01 01:36:12;;;;;;;11.45;5.07;;;;;;;3.17;100.00;99238.53;4949284;29;20047;-86
2023/01/01 01:38:39;;;;;;;11.52;3.80;;;;;;;2.80;100.00;99172.50;4946820;28;20094;-87
2023/01/01 01:41:06;;;;;;;11.02;4.75;;;;;;;3.03;100.00;99220.91;4961140;28;20055;-87
2023/01/01 01:43:33;;;;;;;11.90;5.10;;;;;;;3.07;100.00;99230.25;4944052;28;20058;-86
2023/01/01 01:46:15;;;;;;;10.25;3.85;;;;;;;2.93;100.00;99203.97;4944790;28;20047;-87
2023/01/01 01:48:45;;;;;;;7.40;3.33;;;;;;;3.16;100.00;99227.38;4943270;29;20126;-87
2023/01/01 01:51:14;;;;;;;10.43;4.43;;;;;;;3.11;100.00;99221.50;4969704;28;20110;-86
2023/01/01 01:53:47;;;;;;;10.50;4.20;;;;;;;3.07;100.00;99213.88;4956055;28;20047;-86
2023/01/01 01:56:20;;;;;;;10.88;3.83;;;;;;;3.20;100.00;99220.34;4963184;28;20051;-87
2023/01/01 01:58:47;;;;;;;8.95;3.20;;;;;;;3.05;100.00;99201.00;4949274;28;20048;-86
2023/01/01 02:01:14;;;;;;;10.02;4.18;;;;;;;3.21;100.00;99222.06;4947876;28;20059;-87
2023/01/01 02:03:56;;;;;;;12.57;3.90;;;;;;;3.02;100.00;99173.50;4950995;28;20547;-86
2023/01/01 02:06:28;;;;;;;9.02;3.22;;;;;;;3.11;100.00;99189.63;4943437;28;20055;-86
2023/01/01 02:08:57;;;;;;;8.30;3.10;;;;;;;3.21;100.00;99202.19;4946475;29;20106;-87
2023/01/01 02:11:24;;;;;;;9.73;4.07;;;;;;;2.99;100.00;99168.44;4959648;28;20523;-86
2023/01/01 02:13:53;;;;;;;9.05;3.65;;;;;;;3.00;100.00;99166.69;4946614;28;20060;-86
2023/01/01 02:16:57;;;;;;;10.05;4.13;;;;;;;3.28;100.00;99202.84;4963820;28;20062;-86
2023/01/01 02:20:00;;;;;;;9.43;3.83;;;;;;;3.38;100.00;99205.97;4949758;28;20106;-86
2023/01/01 02:22:49;;;;;;;9.45;4.00;;;;;;;3.35;100.00;99217.28;4943385;29;20048;-86
2023/01/01 02:25:39;;;;;;;9.15;3.70;;;;;;;3.36;100.00;99224.13;4966954;28;20593;-86
2023/01/01 02:28:24;;;;;;;9.80;3.03;;;;;;;3.48;100.00;99214.31;4959962;28;20052;-86
2023/01/01 02:30:54;;;;;;;9.95;3.72;;;;;;;3.44;100.00;99213.56;4939359;29;20051;-87
2023/01/01 02:33:24;;;;;;;9.30;3.70;;;;;;;3.45;100.00;99196.28;4963642;28;20086;-86
2023/01/01 02:35:56;;;;;;;9.57;4.18;;;;;;;3.44;100.00;99174.75;4951103;28;20070;-86
2023/01/01 02:38:33;;;;;;;8.43;3.00;;;;;;;3.52;100.00;99175.31;4950980;28;20047;-86
2023/01/01 02:41:24;;;;;;;9.65;3.47;;;;;;;3.54;100.00;99189.06;4942287;28;20056;-86
2023/01/01 02:43:52;;;;;;;12.70;3.80;;;;;;;3.54;100.00;99175.25;4942454;28;20051;-86
2023/01/01 02:46:19;;;;;;;12.18;3.50;;;;;;;3.75;100.00;99176.28;4950883;29;20115;-86
2023/01/01 02:48:50;;;;;;;7.93;2.75;;;;;;;3.61;100.00;99148.28;4942906;28;20027;-83
2023/01/01 02:51:26;;;;;;;7.72;2.70;;;;;;;3.99;100.00;99178.00;4947488;28;20054;-84
2023/01/01 02:54:22;;;;;;;10.18;2.60;;;;;;;4.18;100.00;99177.38;4949696;28;20064;-84
2023/01/01 02:57:19;;;;;;;8.90;2.67;;;;;;;4.40;100.00;99179.16;4951606;28;20058;-84
2023/01/01 03:00:22;;;;;;;6.55;1.70;;;;;;;4.31;100.00;99181.19;4975433;28;20057;-84
2023/01/01 03:03:08;;;;;;;7.45;1.88;;;;;;;4.40;100.00;99186.94;4952013;28;20683;-84
2023/01/01 03:06:22;;;;;;;7.53;1.98;;;;;;;4.39;100.00;99183.47;4949788;28;20048;-84
2023/01/01 03:08:52;;;;;;;;;;;;;;;4.41;100.00;99192.06;4949100;28;20047;-84
2023/01/01 03:11:22;;;;;;;4.43;1.60;;;;;;;4.32;100.00;99172.53;4971720;28;19945;-84
2023/01/01 03:14:06;;;;;;;5.07;1.90;;;;;;;4.36;100.00;99175.84;4958659;28;20066;-84
2023/01/01 03:16:39;;;;;;;6.50;1.70;;;;;;;4.36;100.00;99175.84;4944391;28;20059;-84
2023/01/01 03:19:24;;;;;;;6.17;1.90;;;;;;;4.37;100.00;99193.06;4947659;28;20047;-84
2023/01/01 03:22:05;;;;;;;10.80;2.33;;;;;;;4.14;100.00;99180.94;4966303;28;20074;-84
2023/01/01 03:24:40;;;;;;;12.15;3.63;;;;;;;3.96;100.00;99178.13;4965112;28;20059;-83
2023/01/01 03:27:16;;;;;;;9.15;3.40;;;;;;;3.93;100.00;99188.59;4951444;29;20059;-84
2023/01/01 03:29:46;;;;;;;6.78;2.38;;;;;;;3.85;100.00;99158.69;4953243;28;20486;-84
2023/01/01 03:32:20;;;;;;;9.35;2.28;;;;;;;3.98;100.00;99163.41;4949911;28;20112;-84
2023/01/01 03:34:53;;;;;;;5.72;2.25;;;;;;;4.02;100.00;99146.00;4966580;28;20051;-84
2023/01/01 03:37:26;;;;;;;5.82;1.88;;;;;;;4.12;100.00;99155.09;4946854;29;20054;-84
2023/01/01 03:39:57;;;;;;;9.90;2.05;;;;;;;4.30;100.00;99187.28;4952493;28;20111;-84
2023/01/01 03:42:54;;;;;;;5.22;1.85;;;;;;;4.29;100.00;99189.94;4953152;28;20105;-84
2023/01/01 03:45:29;;;;;;;5.40;1.73;;;;;;;4.15;100.00;99173.13;4963704;28;20051;-84
2023/01/01 03:47:57;;;;;;;6.32;1.80;;;;;;;3.87;100.00;99136.19;4952265;28;20530;-85
2023/01/01 03:50:34;;;;;;;7.18;2.63;;;;;;;3.96;100.00;99148.78;4949058;28;20055;-84
2023/01/01 03:53:13;;;;;;;5.07;1.60;;;;;;;4.30;100.00;99179.50;4947557;29;20066;-84
2023/01/01 03:55:52;;;;;;;5.05;1.55;;;;;;;4.07;100.00;99118.19;4949657;28;20058;-84
2023/01/01 03:58:37;;;;;;;6.10;1.80;;;;;;;4.17;100.00;99110.91;4949427;29;20047;-84
2023/01/01 04:01:10;;;;;;;3.90;1.38;;;;;;;4.51;100.00;99140.72;4956574;28;20060;-84
2023/01/01 04:03:40;;;;;;;6.95;1.67;;;;;;;4.85;100.00;99165.34;4948316;28;20061;-85
2023/01/01 04:06:10;;;;;;;3.42;1.40;;;;;;;4.79;100.00;99150.88;4954240;29;20581;-84
2023/01/01 04:08:37;;;;;;;5.30;1.52;;;;;;;4.95;100.00;99171.84;4952041;28;20043;-84
2023/01/01 04:13:59;;;;;;;6.25;1.42;;;;;;;4.84;100.00;99137.72;4961812;28;20478;-84
2023/01/01 04:16:26;;;;;;;6.80;1.45;;;;;;;4.68;100.00;99109.81;4958425;28;20474;-84
2023/01/01 04:18:53;;;;;;;7.60;2.20;;;;;;;4.61;100.00;99099.75;4943805;29;20062;-84
2023/01/01 04:21:19;;;;;;;5.18;1.40;;;;;;;4.63;100.00;99103.97;4963882;28;20422;-84
2023/01/01 04:23:46;;;;;;;5.00;2.55;;;;;;;4.78;100.00;99127.59;4954544;29;20051;-84
2023/01/01 04:26:13;;;;;;;7.30;1.70;;;;;;;4.67;100.00;99126.25;4952423;28;20480;-84
2023/01/01 04:28:41;;;;;;;6.50;1.98;;;;;;;4.53;100.00;99110.41;4972969;28;20472;-84
2023/01/01 04:31:08;;;;;;;7.07;1.50;;;;;;;4.80;100.00;99142.19;4952227;28;20047;-84
2023/01/01 04:33:35;;;;;;;6.75;1.60;;;;;;;4.50;100.00;99105.34;4942808;28;20067;-84
2023/01/01 04:36:07;;;;;;;8.45;1.92;;;;;;;4.36;100.00;99096.34;4943930;29;20059;-84
2023/01/01 04:38:35;;;;;;;7.80;1.90;;;;;;;4.89;100.00;99170.34;4948663;29;20051;-84
2023/01/01 04:41:03;;;;;;;6.03;1.95;;;;;;;4.53;100.00;99134.59;4947282;29;20130;-84
2023/01/01 04:43:30;;;;;;;4.78;1.80;;;;;;;4.77;100.00;99167.41;4954478;28;20397;-83
2023/01/01 04:46:02;;;;;;;5.72;1.60;;;;;;;4.73;100.00;99151.13;4945500;28;20060;-84
2023/01/01 04:48:30;;;;;;;7.53;1.67;;;;;;;4.39;100.00;99116.09;4947817;28;20079;-84
2023/01/01 04:50:59;;;;;;;6.18;1.60;;;;;;;4.35;100.00;99107.59;4948592;28;20051;-84
2023/01/01 04:53:31;;;;;;;6.20;1.70;;;;;;;4.86;100.00;99177.41;4953361;28;20062;-84
2023/01/01 04:56:12;;;;;;;5.00;1.60;;;;;;;4.84;100.00;99177.47;4958896;28;20059;-84
2023/01/01 04:58:40;;;;;;;3.97;1.25;;;;;;;4.63;100.00;99142.00;4985140;28;20043;-84
2023/01/01 05:01:07;;;;;;;3.80;1.50;;;;;;;4.75;100.00;99163.09;4959917;28;20062;-84
2023/01/01 05:03:36;;;;;;;6.05;1.35;;;;;;;4.37;100.00;99103.22;4953602;29;20082;-83
2023/01/01 05:06:08;;;;;;;4.63;1.40;;;;;;;4.68;100.00;99143.50;4953453;29;20062;-83
2023/01/01 05:08:38;;;;;;;5.28;1.52;;;;;;;4.35;100.00;99099.00;4954254;28;20142;-84
2023/01/01 05:11:11;;;;;;;2.63;1.20;;;;;;;4.71;100.00;99142.53;4958474;28;20062;-83
2023/01/01 05:13:40;;;;;;;6.97;1.45;;;;;;;4.66;100.00;99154.84;4946241;28;20075;-83
2023/01/01 05:16:10;;;;;;;7.40;1.83;;;;;;;4.57;100.00;99162.06;4953203;28;20420;-83
2023/01/01 05:18:38;;;;;;;6.50;1.65;;;;;;;4.24;100.00;99093.38;4953782;29;20074;-83
2023/01/01 05:21:08;;;;;;;8.93;1.75;;;;;;;4.37;100.00;99102.38;4957923;28;20070;-83
2023/01/01 05:23:35;;;;;;;4.47;1.30;;;;;;;4.29;100.00;99083.69;4953607;29;20492;-85
2023/01/01 05:26:14;;;;;;;5.45;1.67;;;;;;;4.29;100.00;99118.22;4955549;28;20420;-83
2023/01/01 05:28:41;;;;;;;5.95;1.40;;;;;;;4.53;100.00;99116.44;4941494;29;20043;-83
2023/01/01 05:31:11;;;;;;;4.13;1.20;;;;;;;4.66;100.00;99115.97;4954426;29;20495;-84
2023/01/01 05:33:38;;;;;;;9.43;1.73;;;;;;;4.55;100.00;99095.63;4940995;28;20477;-85
2023/01/01 05:36:07;;;;;;;5.00;1.30;;;;;;;4.93;100.00;99138.19;4954346;29;20055;-85
2023/01/01 05:38:35;;;;;;;5.28;1.55;;;;;;;4.89;100.00;99159.97;4951149;29;20075;-85
2023/01/01 05:41:11;;;;;;;7.03;1.40;;;;;;;4.98;100.00;99158.78;4946451;29;20402;-85
2023/01/01 05:43:38;;;;;;;10.75;2.67;;;;;;;4.55;100.00;99090.44;4954879;29;20058;-85
2023/01/01 05:46:07;;;;;;;7.25;1.55;;;;;;;4.96;100.00;99147.63;4955235;28;20059;-85
2023/01/01 05:48:37;;;;;;;10.50;1.70;;;;;;;4.92;100.00;99159.88;4970586;28;20441;-85
2023/01/01 05:51:12;;;;;;;6.03;1.77;;;;;;;5.11;100.00;99172.94;4964888;28;20062;-85
2023/01/01 05:53:39;;;;;;;5.78;1.30;;;;;;;4.83;100.00;99123.91;4965221;28;20059;-85
2023/01/01 05:56:06;;;;;;;6.28;1.52;;;;;;;5.26;100.00;99168.88;4955103;28;20445;-85
2023/01/01 05:58:34;;;;;;;3.30;1.30;;;;;;;5.03;100.00;99122.25;4951496;28;20062;-85
2023/01/01 06:01:09;;;;;;;4.53;1.20;;;;;;;5.33;100.00;99175.50;4944211;29;20055;-85
2023/01/01 06:03:36;;;;;;;6.45;1.30;;;;;;;5.16;100.00;99157.19;4955071;28;20545;-85
2023/01/01 06:06:09;;;;;;;5.43;1.50;;;;;;;5.12;100.00;99145.25;4961261;28;20050;-85
2023/01/01 06:08:35;;;;;;;3.28;1.35;;;;;;;5.02;100.00;99124.00;4943281;28;20074;-85
2023/01/01 06:11:05;;;;;;;4.53;1.33;;;;;;;5.11;100.00;99134.00;4942679;29;20110;-85
2023/01/01 06:13:32;;;;;;;4.75;1.50;;;;;;;5.30;100.00;99159.22;4943829;29;20059;-85
2023/01/01 06:16:00;;;;;;;6.18;1.60;;;;;;;5.07;100.00;99119.47;4954567;28;20413;-85
2023/01/01 06:18:32;;;;;;;3.88;1.30;;;;;;;5.41;100.00;99175.19;4954849;29;20059;-85
2023/01/01 06:21:13;;;;;;;7.33;1.30;;;;;;;5.48;100.00;99178.38;4955520;28;20051;-85
2023/01/01 06:23:40;;;;;;;3.42;1.25;;;;;;;5.12;100.00;99135.72;4953721;29;20047;-86
2023/01/01 06:26:18;;;;;;;4.68;1.30;;;;;;;5.13;100.00;99127.03;4954563;29;20047;-85
2023/01/01 06:28:46;;;;;;;6.63;1.55;;;;;;;5.21;100.00;99134.50;4952738;29;20050;-86
2023/01/01 06:31:16;;;;;;;6.32;1.27;;;;;;;5.05;100.00;99113.53;4951535;29;20051;-85
2023/01/01 06:33:44;;;;;;;4.40;1.40;;;;;;;5.50;100.00;99180.00;4942461;29;20043;-85
2023/01/01 06:36:12;;;;;;;6.25;1.40;;;;;;;5.54;100.00;99185.91;4957689;29;20047;-86
2023/01/01 06:38:42;;;;;;;4.50;1.33;;;;;;;5.31;100.00;99147.91;4958184;28;20051;-86
2023/01/01 06:41:14;;;;;;;3.70;1.40;;;;;;;5.53;100.00;99176.44;4957942;28;20047;-86
2023/01/01 06:43:41;;;;;;;3.15;1.38;;;;;;;5.40;100.00;99159.66;4956576;28;20055;-86
2023/01/01 06:46:29;;;;;;;7.40;1.63;;;;;;;5.13;100.00;99121.84;4949313;28;20047;-86
2023/01/01 06:48:58;;;;;;;4.57;1.25;;;;;;;4.96;100.00;99116.50;4956805;28;20522;-86
2023/01/01 06:51:36;;;;;;;2.45;1.10;;;;;;;5.05;100.00;99141.22;4956562;28;20055;-86
2023/01/01 06:54:04;;;;;;;4.25;1.27;;;;;;;5.02;100.00;99159.50;4963511;28;20397;-85
2023/01/01 06:56:31;;;;;;;1.63;1.13;;;;;;;5.07;100.00;99181.75;4964099;28;20059;-86
2023/01/01 06:58:58;;;;;;;3.15;1.30;;;;;;;4.83;100.00;99154.19;4957533;28;20051;-86
2023/01/01 07:01:28;;;;;;;3.95;1.10;;;;;;;5.07;100.00;99194.72;4957722;28;20058;-85
2023/01/01 07:04:03;;;;;;;4.53;1.30;;;;;;;4.81;100.00;99150.81;4956708;28;20062;-86
2023/01/01 07:06:32;;;;;;;4.80;1.15;;;;;;;4.85;100.00;99171.38;4957089;28;20061;-86
2023/01/01 07:08:59;;;;;;;6.75;1.35;;;;;;;4.54;100.00;99136.25;4961344;28;20129;-86
2023/01/01 07:11:26;;;;;;;4.47;1.30;;;;;;;4.55;100.00;99135.38;4962169;28;20051;-86
2023/01/01 07:13:53;;;;;;;2.67;1.10;;;;;;;4.83;100.00;99180.13;4950792;28;20048;-86
2023/01/01 07:16:21;;;;;;;3.47;1.27;;;;;;;4.65;100.00;99164.34;4956211;29;20059;-86
2023/01/01 07:18:49;;;;;;;3.22;1.30;;;;;;;4.47;100.00;99152.13;4971720;28;20082;-85
2023/01/01 07:22:03;;;;;;;2.67;1.30;;;;;;;4.87;100.00;99211.06;4961860;28;20047;-85
2023/01/01 07:24:33;;;;;;;3.90;1.30;;;;;;;4.47;100.00;99165.06;4959209;28;20055;-85
2023/01/01 07:27:03;;;;;;;6.43;1.92;;;;;;;4.19;100.00;99156.56;4956966;28;20050;-85
2023/01/01 07:29:30;;;;;;;4.40;1.50;;;;;;;4.14;100.00;99132.59;4954289;28;20842;-85
2023/01/01 07:31:57;;;;;;;3.33;1.30;;;;;;;4.24;100.00;99153.81;4951455;28;20052;-83
2023/01/01 07:34:23;;;;;;;5.30;1.60;;;;;;;4.34;100.00;99164.69;4962904;28;20058;-85
2023/01/01 07:36:50;;;;;;;3.35;1.40;;;;;;;4.35;100.00;99167.19;4957158;28;20130;-86
2023/01/01 07:39:17;;;;;;;3.33;1.38;;;;;;;4.29;100.00;99154.50;4948640;28;20052;-85
2023/01/01 07:41:44;;;;;;;4.75;1.60;;;;;;;4.29;100.00;99164.03;4962471;28;20055;-84
2023/01/01 07:44:11;;;;;;;5.00;1.60;;;;;;;4.02;100.00;99140.81;4950045;28;20142;-85
2023/01/01 07:46:38;;;;;;;4.57;1.40;;;;;;;4.32;100.00;99169.06;4958898;29;20109;-84
2023/01/01 07:49:05;;;;;;;3.70;1.42;;;;;;;4.33;100.00;99175.94;4958431;29;20512;-86
2023/01/01 07:51:31;;;;;;;4.88;2.10;;;;;;;4.47;100.00;99209.97;4973681;28;20409;-84
2023/01/01 07:53:58;;;;;;;5.43;1.83;;;;;;;4.02;100.00;99160.66;4961807;28;20063;-83
2023/01/01 07:56:34;;;;;;;4.53;1.70;;;;;;;4.18;100.00;99191.16;4950310;29;20109;-84
2023/01/01 07:59:00;;;;;;;6.47;1.73;;;;;;;4.27;100.00;99209.88;4962206;28;20512;-86
2023/01/01 08:01:27;;;;;;;3.20;1.60;;;;;;;4.30;100.00;99228.75;4957245;28;20458;-84
2023/01/01 08:03:54;;;;;;;4.35;1.75;;;;;;;4.35;100.00;99234.56;4959700;28;20401;-86
2023/01/01 08:06:21;;;;;;;4.18;1.67;;;;;;;4.26;100.00;99221.97;4956885;28;20486;-84
2023/01/01 08:08:48;;;;;;;5.40;3.35;;;;;;;3.98;100.00;99172.88;4965869;28;20047;-84
2023/01/01 08:11:15;;;;;;;3.65;1.50;;;;;;;4.18;100.00;99200.69;4954832;28;20055;-85
2023/01/01 08:13:41;;;;;;;4.03;1.67;;;;;;;4.16;100.00;99205.91;4957706;29;20473;-85
2023/01/01 08:16:08;;;;;;;3.22;1.40;;;;;;;4.19;100.00;99202.34;4958547;28;20404;-85
2023/01/01 08:18:35;;;;;;;3.72;1.40;;;;;;;4.49;100.00;99243.63;4957796;29;20596;-85
2023/01/01 08:21:02;;;;;;;3.55;1.60;;;;;;;4.51;100.00;99244.41;4957395;28;20042;-85
2023/01/01 08:23:29;;;;;;;2.75;1.48;;;;;;;4.30;100.00;99208.00;4955009;28;20055;-84
2023/01/01 08:26:02;;;;;;;4.07;1.52;;;;;;;4.37;100.00;99219.84;4960873;28;20062;-84
2023/01/01 08:28:29;;;;;;;3.45;1.60;;;;;;;4.51;100.00;99237.47;4953912;28;20780;-84
2023/01/01 08:30:56;;;;;;;3.80;1.65;;;;;;;4.47;100.00;99237.66;4949680;29;20055;-84
2023/01/01 08:33:25;;;;;;;3.33;1.40;;;;;;;4.27;100.00;99213.31;4968859;28;20102;-85
2023/01/01 08:35:51;;;;;;;4.45;1.83;;;;;;;4.22;100.00;99230.75;4954206;29;20047;-84
2023/01/01 08:38:20;;;;;;;4.47;1.63;;;;;;;4.05;100.00;99207.19;4967950;28;20203;-84
2023/01/01 08:40:46;;;;;;;3.38;1.60;;;;;;;4.01;100.00;99193.50;4954957;28;20477;-83
2023/01/01 08:43:13;;;;;;;5.55;1.90;;;;;;;4.03;100.00;99243.50;4967622;28;20051;-84
2023/01/01 08:45:40;;;;;;;4.97;1.90;;;;;;;3.91;100.00;99239.59;4951838;28;20047;-84
2023/01/01 08:48:07;;;;;;;5.57;2.10;;;;;;;4.06;100.00;99252.91;4951441;29;20467;-85
2023/01/01 08:50:34;;;;;;;5.85;2.30;;;;;;;4.05;100.00;99261.56;4940922;28;20058;-84
2023/01/01 08:53:00;;;;;;;5.53;2.30;;;;;;;4.12;100.00;99294.13;4953918;29;20528;-83
2023/01/01 08:55:28;;;;;;;4.25;1.77;;;;;;;3.97;100.00;99256.66;4940234;28;20047;-84
2023/01/01 08:57:54;;;;;;;4.30;1.83;;;;;;;3.79;100.00;99243.44;4957123;28;20527;-84
2023/01/01 09:00:21;;;;;;;4.82;1.90;;;;;;;3.60;100.00;99206.13;4966178;28;20047;-84
2023/01/01 09:02:48;;;;;;;4.18;1.85;;;;;;;3.79;100.00;99232.25;4961612;28;20053;-83
2023/01/01 09:05:15;;;;;;;4.35;1.80;;;;;;;3.86;100.00;99258.75;4969543;28;20699;-85
2023/01/01 09:07:42;;;;;;;4.90;1.90;;;;;;;3.83;100.00;99248.53;4942776;29;20043;-85
2023/01/01 09:10:08;;;;;;;5.68;2.20;;;;;;;3.74;100.00;99260.03;4952555;29;20577;-84
2023/01/01 09:12:35;;;;;;;7.55;3.08;;;;;;;3.49;100.00;99252.19;4957803;28;20073;-86
2023/01/01 09:15:02;;;;;;;5.07;2.00;;;;;;;3.46;100.00;99255.75;4959427;28;20489;-84
2023/01/01 09:17:29;;;;;;;6.93;2.58;;;;;;;3.36;100.00;99236.22;4954244;28;20461;-83
2023/01/01 09:19:56;;;;;;;5.43;1.85;;;;;;;3.36;100.00;99236.22;4960724;28;20051;-85
2023/01/01 09:22:22;;;;;;;3.58;1.58;;;;;;;3.48;100.00;99235.84;4954452;28;20126;-84
2023/01/01 09:24:49;;;;;;;4.90;1.85;;;;;;;3.46;100.00;99239.38;4957807;28;20063;-84
2023/01/01 09:27:16;;;;;;;4.55;1.75;;;;;;;3.52;100.00;99249.53;4962796;28;20076;-84
2023/01/01 09:40:28;;;;;;;3.90;1.50;;;;;;;3.64;100.00;99271.59;5168200;27;20862;-84
2023/01/01 09:43:07;;;;;;;3.25;1.60;;;;;;;3.80;100.00;99290.88;5163643;27;20050;-86
2023/01/01 09:45:53;;;;;;;2.53;1.45;;;;;;;3.87;100.00;99304.47;5165125;27;20047;-84
2023/01/01 09:48:20;;;;;;;5.00;1.77;;;;;;;3.25;100.00;99240.91;5165352;27;20121;-84
2023/01/01 09:50:47;;;;;;;3.40;1.70;;;;;;;3.59;100.00;99293.28;5148689;27;20051;-84
2023/01/01 09:53:44;;;;;;;2.83;1.50;;;;;;;3.46;100.00;99266.09;5151411;27;20053;-84
2023/01/01 09:56:17;;;;;;;3.50;1.40;;;;;;;3.71;100.00;99306.72;5156369;27;20046;-84
2023/01/01 09:58:44;;;;;;;4.32;1.70;;;;;;;3.48;100.00;99273.81;5164642;27;20042;-83
2023/01/01 10:01:26;;;;;;;4.40;1.52;;;;;;;3.97;100.00;99329.19;5147610;27;20050;-85
2023/01/01 10:04:08;;;;;;;4.22;1.60;;;;;;;4.02;100.00;99326.44;5150787;27;20051;-86
2023/01/01 10:06:43;;;;;;;3.17;1.40;;;;;;;3.89;100.00;99329.41;5152811;27;20044;-86
2023/01/01 10:09:23;;;;;;;4.63;1.85;;;;;;;3.39;100.00;99243.91;5148602;27;20423;-86
2023/01/01 10:12:11;;;;;;;3.95;1.77;;;;;;;3.92;100.00;99325.91;5165645;27;20042;-85
2023/01/01 10:14:42;;;;;;;4.68;1.70;;;;;;;3.76;100.00;99273.78;5149542;27;20487;-85
2023/01/01 10:17:16;;;;;;;2.25;1.40;;;;;;;3.78;100.00;99266.78;5158502;27;20089;-86
2023/01/01 10:19:49;;;;;;;4.20;1.70;;;;;;;3.84;100.00;99270.91;5148526;27;20074;-87
2023/01/01 10:22:25;;;;;;;2.97;1.42;;;;;;;3.74;100.00;99260.03;5148716;27;20062;-86
2023/01/01 10:24:58;;;;;;;3.15;1.60;;;;;;;4.31;100.00;99335.81;5151777;27;20050;-87
2023/01/01 10:27:32;;;;;;;2.72;1.40;;;;;;;4.11;100.00;99279.50;5151258;27;20038;-86
2023/01/01 10:30:01;;;;;;;4.05;1.77;;;;;;;4.42;100.00;99336.28;5148895;27;20444;-85
2023/01/01 10:32:34;;;;;;;4.82;1.80;;;;;;;4.07;100.00;99271.00;5170321;27;20050;-86
2023/01/01 10:35:10;;;;;;;3.30;1.60;;;;;;;4.38;100.00;99312.22;5149015;27;20391;-86
2023/01/01 10:37:38;;;;;;;2.95;1.30;;;;;;;4.25;100.00;99290.25;5170184;27;20095;-87
2023/01/01 10:40:22;;;;;;;4.90;1.65;;;;;;;4.56;100.00;99335.81;5130447;27;20047;-87
2023/01/01 10:43:02;;;;;;;5.43;1.50;;;;;;;4.78;100.00;99361.84;5130970;27;20142;-87
2023/01/01 10:45:49;;;;;;;4.15;1.70;;;;;;;4.38;100.00;99291.50;5142553;27;20498;-87
2023/01/01 10:48:28;;;;;;;2.80;1.38;;;;;;;4.99;100.00;99356.75;5139809;27;20054;-86
2023/01/01 10:51:00;;;;;;;3.97;1.67;;;;;;;4.57;100.00;99314.19;5126952;27;20427;-86
2023/01/01 10:53:40;;;;;;;3.20;1.48;;;;;;;5.02;100.00;99359.25;5154689;27;20058;-87
2023/01/01 10:56:13;;;;;;;2.88;1.35;;;;;;;5.07;100.00;99363.34;5137572;27;20496;-86
2023/01/01 10:58:55;;;;;;;3.92;1.70;;;;;;;4.81;100.00;99320.22;5144473;27;20764;-87
2023/01/01 11:01:30;;;;;;;3.45;1.40;;;;;;;5.14;100.00;99354.44;5135834;27;20051;-87
2023/01/01 11:04:00;;;;;;;4.03;1.58;;;;;;;5.18;100.00;99341.34;5137246;27;20050;-87
2023/01/01 11:06:36;;;;;;;4.38;1.60;;;;;;;5.22;100.00;99355.91;5129737;27;20043;-87
2023/01/01 11:09:16;;;;;;;2.42;1.23;;;;;;;4.82;100.00;99279.59;5136695;27;20050;-87
2023/01/01 11:11:45;;;;;;;2.13;1.10;;;;;;;5.12;100.00;99314.72;5135386;27;20099;-87
2023/01/01 11:14:24;;;;;;;4.25;1.38;;;;;;;5.29;100.00;99344.38;5134967;27;20043;-86
2023/01/01 11:16:53;;;;;;;3.50;1.63;;;;;;;4.86;100.00;99273.38;5129374;27;20065;-87
2023/01/01 11:19:22;;;;;;;3.83;1.30;;;;;;;4.89;100.00;99286.22;5132594;27;20049;-86
2023/01/01 11:21:48;;;;;;;2.80;1.38;;;;;;;5.25;100.00;99301.28;5132444;27;20380;-87
2023/01/01 11:24:24;;;;;;;2.17;1.15;;;;;;;5.50;100.00;99351.34;5133915;27;20050;-87
2023/01/01 11:26:53;;;;;;;4.72;1.80;;;;;;;5.32;100.00;99305.34;5132327;27;20042;-84
2023/01/01 11:29:26;;;;;;;4.85;1.60;;;;;;;5.25;100.00;99278.78;5136634;27;20035;-85
2023/01/01 11:31:55;;;;;;;3.58;1.40;;;;;;;5.05;100.00;99225.06;5148758;27;20054;-86
2023/01/01 11:34:27;;;;;;;2.33;1.20;;;;;;;5.51;100.00;99292.50;5151975;27;20047;-87
2023/01/01 11:37:20;;;;;;;2.70;1.30;;;;;;;5.63;100.00;99285.94;5132419;27;20047;-86
2023/01/01 11:39:50;;;;;;;3.67;1.50;;;;;;;5.55;100.00;99280.22;5115156;27;20042;-86
2023/01/01 11:42:21;;;;;;;4.80;1.48;;;;;;;5.42;100.00;99270.34;5151490;27;20490;-86
2023/01/01 11:44:52;;;;;;;5.35;1.60;;;;;;;5.58;100.00;99291.34;5147490;27;20457;-86
2023/01/01 11:47:31;;;;;;;9.93;4.53;;;;;;;5.29;100.00;99243.16;5134508;27;20046;-86
2023/01/01 11:50:25;;;;;;;9.65;3.38;;;;;;;5.52;100.00;99268.19;5132193;27;20043;-86
2023/01/01 11:52:57;;;;;;;10.50;3.47;;;;;;;5.57;100.00;99275.81;5144312;27;20051;-86
2023/01/01 11:55:42;;;;;;;10.07;3.38;;;;;;;5.67;100.00;99288.38;5129360;27;20047;-86
2023/01/01 11:58:32;;;;;;;7.80;3.42;;;;;;;5.93;100.00;99338.38;5136134;27;20078;-86
2023/01/01 12:01:08;;;;;;;8.52;2.67;;;;;;;5.71;100.00;99283.88;5143213;27;20053;-86
2023/01/01 12:03:47;;;;;;;7.57;2.53;;;;;;;5.99;100.00;99329.56;5137108;27;20911;-86
2023/01/01 12:06:29;;;;;;;6.03;1.90;;;;;;;5.72;100.00;99272.59;5136365;27;20491;-86
2023/01/01 12:09:16;;;;;;;6.05;2.03;;;;;;;6.12;100.00;99314.28;5131327;27;20452;-85